Latest Weather Observations for The Monument

IDQ60801

Issued at 9:22 am EST Wednesday 16 January 2019 (issued every 10 minutes, with the page automatically refreshed every 10 minutes)

About weather observations | Map of weather stations | Latest weather observations for QLD | Other Formats
Station Details ID: 037034 Name: THE MONUMENT AIRPORT Lat: -21.81 Lon: 139.93 Height: 288.4 m
Data from the previous 72 hours. | See also: Recent months at The Monument
Date/Time
EST
Temp
°C
App
Temp
°C
Dew
Point
°C
Rel
Hum
%
Delta-T
°C
Wind Press
QNH
hPa
Press
MSL
hPa
Rain since
9am
mm
Dir  Spd
km/h
Gust
km/h
Spd
kts
Gust
kts
16/09:00am 34.8 31.5 16.1 32 12.0 NNE 28 39 15 21 1011.9 1009.6 0.0
16/08:30am 34.0 29.8 13.5 29 12.6 NNE 28 39 15 21 1011.8 1009.5 0.0
16/08:00am 33.7 30.3 13.7 30 12.3 NE 24 35 13 19 1011.7 1009.4 0.0
16/07:30am 32.6 30.0 13.8 32 11.5 NNE 20 32 11 17 1011.3 1009.0 0.0
16/07:00am 31.2 30.2 13.5 34 10.8 NE 11 15 6 8 1011.0 1008.7 0.0
16/06:30am 29.2 28.7 12.6 36 9.9 NNE 7 9 4 5 1010.8 1008.5 0.0
16/06:00am 29.5 28.2 12.4 35 10.2 ENE 11 15 6 8 1010.2 1007.9 0.0
16/05:30am 29.9 28.2 12.3 33 10.4 ENE 13 17 7 9 1009.8 1007.5 0.0
16/05:00am 30.3 28.5 12.2 33 10.8 ENE 13 17 7 9 1009.5 1007.1 0.0
16/04:30am 30.4 28.5 11.9 32 10.9 ENE 13 15 7 8 1009.0 1006.7 0.0
16/04:00am 30.6 28.5 11.1 30 11.4 ENE 13 15 7 8 1008.8 1006.5 0.0
16/03:30am 30.4 28.1 10.4 29 11.5 ENE 13 15 7 8 1008.7 1006.4 0.0
16/03:00am 30.5 27.9 9.4 27 12.0 ENE 13 15 7 8 1008.7 1006.4 0.0
16/02:30am 31.0 28.1 8.1 24 12.8 ENE 13 17 7 9 1008.6 1006.3 0.0
16/02:00am 32.2 27.9 7.8 22 13.6 E 20 28 11 15 1008.6 1006.3 0.0
16/01:30am 30.3 28.0 7.5 24 12.5 E 9 9 5 5 1008.6 1006.3 0.0
16/01:00am 31.1 28.8 7.5 23 13.1 E 9 13 5 7 1008.9 1006.6 0.0
16/12:30am 32.0 29.4 7.6 22 13.6 E 11 15 6 8 1009.0 1006.7 0.0
16/12:00am 33.1 30.1 7.9 21 14.2 E 13 19 7 10 1009.3 1007.0 0.0
 
Date/Time
EST
Temp
°C
App
Temp
°C
Dew
Point
°C
Rel
Hum
%
Delta-T
°C
Wind Press
QNH
hPa
Press
MSL
hPa
Rain since
9am
mm
Dir  Spd
km/h
Gust
km/h
Spd
kts
Gust
kts
15/11:30pm 33.7 30.3 7.6 20 14.6 E 15 20 8 11 1009.3 1007.0 0.0
15/11:00pm 34.1 30.6 7.2 19 15.0 E 15 20 8 11 1009.2 1006.9 0.0
15/10:30pm 34.6 30.6 6.8 18 15.5 E 17 22 9 12 1009.0 1006.7 0.0
15/10:00pm 35.4 30.8 6.6 17 16.1 ESE 20 28 11 15 1008.7 1006.4 0.0
15/09:30pm 35.9 31.6 7.0 17 16.2 ESE 19 24 10 13 1008.4 1006.1 0.0
15/09:00pm 36.7 32.2 6.8 16 16.8 ESE 20 28 11 15 1008.1 1005.8 0.0
15/08:30pm 36.7 33.1 6.8 16 16.8 E 15 20 8 11 1007.7 1005.4 0.0
15/08:00pm 37.3 33.4 7.3 16 17.1 ESE 17 22 9 12 1007.5 1005.2 0.0
15/07:30pm 37.7 34.9 8.5 17 16.9 ESE 13 20 7 11 1007.2 1004.9 0.0
15/07:00pm 38.8 34.7 8.5 16 17.7 E 20 28 11 15 1006.9 1004.6 0.0
15/06:30pm 38.9 35.9 9.4 17 17.4 SE 15 20 8 11 1006.7 1004.4 0.0
15/06:00pm 39.2 36.1 8.8 16 17.8 E 15 20 8 11 1006.5 1004.2 0.0
15/05:30pm 39.2 37.8 8.8 16 17.8 ENE 6 15 3 8 1006.3 1003.9 0.0
15/05:00pm 40.7 37.9 10.0 16 18.4 ENE 15 24 8 13 1006.2 1003.8 0.0
15/04:30pm 39.2 36.7 9.7 17 17.5 ENE 13 20 7 11 1006.4 1004.0 0.0
15/04:00pm 41.0 38.6 10.2 16 18.6 ENE 13 22 7 12 1006.6 1004.3 0.0
15/03:30pm 39.1 35.8 9.6 17 17.5 NE 17 26 9 14 1007.0 1004.7 0.0
15/03:00pm 41.0 37.6 11.1 17 18.2 ENE 20 33 11 18 1007.6 1005.3 0.0
15/02:30pm 40.1 37.0 10.4 17 17.8 ENE 17 30 9 16 1008.1 1005.8 0.0
15/02:00pm 40.9 38.3 11.9 18 17.9 NNE 17 28 9 15 1008.5 1006.2 0.0
15/01:30pm 39.5 35.8 8.1 15 18.2 E 17 30 9 16 1009.1 1006.8 0.0
15/01:00pm 39.0 36.2 11.2 19 16.8 NE 17 33 9 18 1009.7 1007.4 0.0
15/12:30pm 39.2 37.4 12.1 20 16.6 ENE 13 26 7 14 1010.2 1007.9 0.0
15/12:00pm 38.6 36.7 13.1 22 15.8 NE 15 24 8 13 1010.8 1008.5 0.0
15/11:30am 39.7 36.6 13.3 21 16.5 ENE 22 30 12 16 1011.1 1008.8 0.0
15/11:00am 37.4 36.2 12.8 23 15.1 NNE 11 28 6 15 1011.4 1009.1 0.0
15/10:30am 37.2 35.8 14.5 26 14.3 N 15 30 8 16 1011.6 1009.3 0.0
15/10:00am 36.4 34.2 13.2 25 14.3 N 17 30 9 16 1012.0 1009.7 0.0
15/09:30am 35.2 33.0 14.5 29 12.9 N 19 24 10 13 1012.2 1009.9 0.0
15/09:00am 33.9 30.9 14.9 32 11.9 NNE 24 35 13 19 1012.3 1010.0 0.0
15/08:30am 32.9 29.6 15.0 34 11.2 NE 26 35 14 19 1012.3 1010.0 0.0
15/08:00am 32.2 29.0 14.3 33 11.1 NE 24 32 13 17 1012.1 1009.8 0.0
15/07:30am 31.9 28.7 13.2 32 11.3 NE 22 33 12 18 1011.8 1009.5 0.0
15/07:00am 30.8 28.6 12.2 32 11.1 NE 15 20 8 11 1011.5 1009.2 0.0
15/06:30am 29.5 27.5 11.5 33 10.5 NE 13 17 7 9 1011.0 1008.7 0.0
15/06:00am 29.5 27.1 11.5 33 10.5 NE 15 20 8 11 1010.6 1008.3 0.0
15/05:30am 29.9 27.4 10.9 31 11.0 NE 15 20 8 11 1010.1 1007.8 0.0
15/05:00am 30.5 27.6 11.0 30 11.4 ENE 17 26 9 14 1009.7 1007.4 0.0
15/04:30am 30.7 27.7 10.6 29 11.7 ENE 17 24 9 13 1009.5 1007.1 0.0
15/04:00am 30.9 27.8 10.3 28 11.9 ENE 17 26 9 14 1009.2 1006.9 0.0
15/03:30am 31.0 27.9 10.4 28 11.9 NE 17 20 9 11 1009.2 1006.9 0.0
15/03:00am 31.0 28.7 10.4 28 11.9 NE 13 19 7 10 1009.1 1006.8 0.0
15/02:30am 31.3 28.9 10.1 27 12.2 ENE 13 19 7 10 1009.1 1006.8 0.0
15/02:00am 31.2 28.6 9.4 26 12.4 ENE 13 15 7 8 1009.1 1006.8 0.0
15/01:30am 31.8 29.2 9.3 25 12.8 ENE 13 17 7 9 1009.1 1006.8 0.0
15/01:00am 31.9 29.2 8.8 24 13.1 ENE 13 15 7 8 1009.2 1006.9 0.0
15/12:30am 32.8 29.7 8.9 23 13.6 ENE 15 19 8 10 1009.3 1007.0 0.0
15/12:00am 32.8 29.7 8.9 23 13.6 E 15 20 8 11 1009.3 1007.0 0.0
 
Date/Time
EST
Temp
°C
App
Temp
°C
Dew
Point
°C
Rel
Hum
%
Delta-T
°C
Wind Press
QNH
hPa
Press
MSL
hPa
Rain since
9am
mm
Dir  Spd
km/h
Gust
km/h
Spd
kts
Gust
kts
14/11:30pm 33.3 30.5 8.7 22 14.0 E 13 17 7 9 1009.5 1007.1 0.0
14/11:00pm 33.4 30.9 8.1 21 14.3 ESE 11 15 6 8 1009.3 1007.0 0.0
14/10:30pm 35.0 30.9 7.9 19 15.4 E 19 26 10 14 1009.0 1006.7 0.0
14/10:00pm 35.3 31.3 8.2 19 15.5 ESE 19 26 10 14 1008.7 1006.4 0.0
14/09:30pm 35.7 31.9 7.7 18 15.9 ESE 17 24 9 13 1008.4 1006.1 0.0
14/09:00pm 36.4 32.4 8.3 18 16.2 ESE 19 26 10 14 1008.2 1005.9 0.0
14/08:30pm 36.5 33.3 8.4 18 16.2 E 15 20 8 11 1008.0 1005.7 0.0
14/08:00pm 37.4 33.4 8.2 17 16.8 ESE 19 24 10 13 1007.7 1005.4 0.0
14/07:30pm 37.9 34.7 8.6 17 17.0 E 15 20 8 11 1007.5 1005.2 0.0
14/07:00pm 38.5 34.9 8.2 16 17.6 E 17 26 9 14 1007.1 1004.8 0.0
14/06:30pm 39.8 35.8 8.3 15 18.3 ENE 19 30 10 16 1006.7 1004.4 0.0
14/06:00pm 39.3 35.6 7.9 15 18.2 E 17 24 9 13 1006.4 1004.0 0.0
14/05:30pm 40.9 36.7 8.1 14 19.1 E 20 33 11 18 1006.4 1004.0 0.0
14/05:00pm 40.7 36.9 9.0 15 18.8 E 19 33 10 18 1006.3 1003.9 0.0
14/04:30pm 40.8 36.4 9.1 15 18.7 E 22 33 12 18 1006.3 1003.9 0.0
14/04:00pm 41.1 36.5 8.3 14 19.2 ESE 22 41 12 22 1006.5 1004.2 0.0
14/03:30pm 41.5 37.3 7.5 13 19.7 ESE 19 41 10 22 1006.9 1004.6 0.0
14/03:00pm 40.6 35.6 7.9 14 19.0 ESE 24 46 13 25 1007.1 1004.8 0.0
14/02:30pm 40.5 36.4 8.8 15 18.6 E 20 39 11 21 1007.4 1005.1 0.0
14/02:00pm 40.6 35.8 8.9 15 18.7 E 24 41 13 22 1008.1 1005.8 0.0
14/01:30pm 41.3 36.3 9.5 15 18.9 ENE 26 43 14 23 1008.5 1006.2 0.0
14/01:00pm 39.0 36.4 9.5 17 17.4 NE 13 32 7 17 1008.8 1006.5 0.0
14/12:30pm 39.0 35.6 10.4 18 17.1 E 19 32 10 17 1009.2 1006.9 0.0
14/12:00pm 39.2 36.5 10.5 18 17.2 NE 15 28 8 15 1009.7 1007.4 0.0
14/11:30am 39.0 35.0 10.4 18 17.1 NE 22 30 12 16 1010.0 1007.7 0.0
14/11:00am 37.5 33.5 9.2 18 16.6 NNE 20 35 11 19 1010.3 1008.0 0.0
14/10:30am 37.3 33.3 10.6 20 15.9 NNE 22 35 12 19 1010.6 1008.3 0.0
14/10:00am 36.8 33.3 10.9 21 15.5 NNE 20 44 11 24 1010.9 1008.6 0.0
14/09:30am 36.0 32.5 10.2 21 15.2 NNE 19 26 10 14 1011.0 1008.7 0.0
14/09:00am 34.5 30.7 9.0 21 14.7 NNE 19 26 10 14 1010.9 1008.6 0.0
14/08:30am 33.6 29.9 9.6 23 13.9 NNE 19 24 10 13 1010.8 1008.5 0.0
14/08:00am 32.4 28.4 9.2 24 13.3 NE 20 28 11 15 1010.7 1008.4 0.0
14/07:30am 31.3 28.8 8.3 24 12.9 NE 11 17 6 9 1010.7 1008.4 0.0
14/07:00am 29.0 27.9 7.0 25 11.9 E 2 6 1 3 1010.6 1008.3 0.0
14/06:30am 26.4 25.1 5.9 27 10.7 NE 2 6 1 3 1010.2 1007.9 0.0
14/06:00am 27.0 24.4 5.9 26 11.1 NE 9 11 5 6 1009.6 1007.2 0.0
14/05:30am 27.8 24.4 6.0 25 11.5 NNE 13 17 7 9 1009.0 1006.7 0.0
14/05:00am 28.4 24.6 5.9 24 12.0 NNE 15 20 8 11 1008.6 1006.3 0.0
14/04:30am 28.1 24.6 5.6 24 11.9 NNE 13 15 7 8 1008.4 1006.1 0.0
14/04:00am 28.5 25.1 6.0 24 12.0 NNE 13 17 7 9 1008.3 1006.0 0.0
14/03:30am 28.7 25.3 6.1 24 12.0 NNE 13 13 7 7 1008.1 1005.8 0.0
14/03:00am 29.0 26.0 5.8 23 12.4 NNE 11 13 6 7 1008.2 1005.9 0.0
14/02:30am 30.0 26.6 6.0 22 12.9 NE 13 15 7 8 1008.5 1006.2 0.0
14/02:00am 31.0 27.3 6.1 21 13.5 NE 15 20 8 11 1008.6 1006.3 0.0
14/01:30am 31.2 27.9 6.3 21 13.5 NE 13 19 7 10 1008.9 1006.6 0.0
14/01:00am 31.9 28.0 6.9 21 13.8 NE 17 24 9 13 1009.3 1007.0 0.0
14/12:30am 31.8 28.2 6.8 21 13.7 NE 15 19 8 10 1009.7 1007.4 0.0
14/12:00am 31.7 28.5 6.7 21 13.7 NE 13 15 7 8 1010.0 1007.7 0.0
 
Date/Time
EST
Temp
°C
App
Temp
°C
Dew
Point
°C
Rel
Hum
%
Delta-T
°C
Wind Press
QNH
hPa
Press
MSL
hPa
Rain since
9am
mm
Dir  Spd
km/h
Gust
km/h
Spd
kts
Gust
kts
13/11:30pm 32.4 29.1 6.6 20 14.1 ENE 13 17 7 9 1010.2 1007.9 0.0
13/11:00pm 33.6 29.6 6.8 19 14.8 ENE 17 24 9 13 1010.3 1008.0 0.0
13/10:30pm 34.1 30.6 7.2 19 15.0 E 15 19 8 10 1010.1 1007.8 0.0
13/10:00pm 34.2 31.1 7.3 19 15.1 E 13 17 7 9 1010.0 1007.7 0.0
13/09:30pm 34.1 31.2 6.4 18 15.3 E 11 15 6 8 1009.7 1007.4 0.0
13/09:00pm 35.1 32.2 6.4 17 15.9 ESE 11 15 6 8 1009.6 1007.2 0.0
13/08:30pm 36.2 32.1 6.4 16 16.6 ESE 17 20 9 11 1009.2 1006.9 0.0
13/08:00pm 37.0 32.5 6.1 15 17.2 ESE 19 24 10 13 1009.0 1006.7 0.0
13/07:30pm 37.6 33.0 5.6 14 17.7 E 19 30 10 16 1008.6 1006.3 0.0
13/07:00pm 38.7 33.9 5.4 13 18.5 E 20 28 11 15 1008.2 1005.9 0.0
13/06:30pm 39.4 34.0 4.7 12 19.1 E 22 33 12 18 1007.8 1005.5 0.0
13/06:00pm 40.1 34.5 5.3 12 19.5 ESE 24 35 13 19 1007.4 1005.1 0.0
13/05:30pm 40.3 34.3 5.4 12 19.5 ESE 26 39 14 21 1007.3 1005.0 0.0
13/05:16pm 40.6 34.0 4.4 11 20.0 ESE 28 46 15 25 1007.2 1004.9 0.0
13/05:00pm 40.9 35.1 4.6 11 20.2 SE 24 43 13 23 1007.2 1004.9 0.0
13/04:30pm 41.0 34.5 4.7 11 20.2 ESE 28 46 15 25 1007.3 1005.0 0.0
13/04:15pm 40.5 34.2 5.6 12 19.6 ESE 28 46 15 25 1007.5 1005.2 0.0
13/04:00pm 41.1 35.2 6.0 12 19.9 E 26 43 14 23 1007.5 1005.2 0.0
13/03:30pm 40.5 34.2 5.6 12 19.6 ESE 28 43 15 23 1007.9 1005.6 0.0
13/03:00pm 41.3 36.1 7.4 13 19.6 ESE 24 43 13 23 1008.3 1006.0 0.0
13/02:30pm 40.1 34.2 7.5 14 18.8 ESE 28 39 15 21 1008.9 1006.6 0.0
13/02:03pm 39.9 33.6 7.4 14 18.7 ESE 30 52 16 28 1009.5 1007.1 0.0
13/02:00pm 40.0 33.5 6.4 13 19.1 E 30 46 16 25 1009.3 1007.0 0.0
13/01:30pm 40.6 34.0 7.9 14 19.0 ESE 32 46 17 25 1009.9 1007.6 0.0
13/01:11pm 40.3 34.2 6.6 13 19.2 E 28 54 15 29 1010.0 1007.7 0.0
13/01:00pm 39.8 34.3 9.2 16 18.1 E 28 41 15 22 1010.2 1007.9 0.0
13/12:30pm 38.8 33.6 10.2 18 17.0 E 28 39 15 21 1010.8 1008.5 0.0
13/12:04pm 38.7 32.9 10.9 19 16.7 E 32 48 17 26 1011.1 1008.8 0.0
13/12:00pm 39.2 33.7 10.5 18 17.2 E 30 48 16 26 1011.1 1008.8 0.0
13/11:30am 39.0 34.8 11.2 19 16.8 ENE 24 44 13 24 1011.6 1009.3 0.0
13/11:00am 38.8 34.6 11.0 19 16.8 ENE 24 35 13 19 1011.9 1009.6 0.0
13/10:44am 37.3 32.8 11.3 21 15.7 ENE 26 48 14 26 1012.1 1009.8 0.0
13/10:30am 37.7 33.3 11.6 21 15.8 ENE 26 37 14 20 1012.2 1009.9 0.0
13/10:25am 38.0 33.0 11.1 20 16.2 ENE 28 37 15 20 1012.2 1009.9 0.0
13/10:00am 37.7 34.5 13.0 23 15.3 NE 22 35 12 19 1012.1 1009.8 0.0
13/09:30am 36.4 32.7 12.6 24 14.5 NE 24 32 13 17 1012.2 1009.9 0.0

Other Formats:

Comma delimited format used in spreadsheet applications
http://www.bom.gov.au/fwo/IDQ60801/IDQ60801.94336.axf

JavaScript Object Notation format (JSON) in row-major order
http://www.bom.gov.au/fwo/IDQ60801/IDQ60801.94336.json